sensor_id;sensor_type;location;lat;lon;timestamp;P1;durP1;ratioP1;P2;durP2;ratioP2
70459;SDS011;57920;54.796;9.430;2023-01-04T00:01:15;2.67;;;2.03;;
70459;SDS011;57920;54.796;9.430;2023-01-04T00:03:42;2.23;;;2.00;;
70459;SDS011;57920;54.796;9.430;2023-01-04T00:06:09;4.93;;;2.67;;
70459;SDS011;57920;54.796;9.430;2023-01-04T00:08:36;3.27;;;2.30;;
70459;SDS011;57920;54.796;9.430;2023-01-04T00:11:07;3.63;;;2.40;;
70459;SDS011;57920;54.796;9.430;2023-01-04T00:13:35;3.30;;;2.30;;
70459;SDS011;57920;54.796;9.430;2023-01-04T00:16:07;3.63;;;2.53;;
70459;SDS011;57920;54.796;9.430;2023-01-04T00:18:37;3.07;;;2.33;;
70459;SDS011;57920;54.796;9.430;2023-01-04T00:23:43;1.93;;;1.73;;
70459;SDS011;57920;54.796;9.430;2023-01-04T00:26:15;2.37;;;2.13;;
70459;SDS011;57920;54.796;9.430;2023-01-04T00:28:43;3.07;;;2.20;;
70459;SDS011;57920;54.796;9.430;2023-01-04T00:31:10;3.27;;;2.27;;
70459;SDS011;57920;54.796;9.430;2023-01-04T00:33:36;2.40;;;2.20;;
70459;SDS011;57920;54.796;9.430;2023-01-04T00:36:03;2.37;;;2.00;;
70459;SDS011;57920;54.796;9.430;2023-01-04T00:38:30;2.37;;;2.10;;
70459;SDS011;57920;54.796;9.430;2023-01-04T00:40:56;2.17;;;1.97;;
70459;SDS011;57920;54.796;9.430;2023-01-04T00:43:22;2.67;;;2.33;;
70459;SDS011;57920;54.796;9.430;2023-01-04T00:45:48;2.77;;;2.13;;
70459;SDS011;57920;54.796;9.430;2023-01-04T00:48:13;2.30;;;2.10;;
70459;SDS011;57920;54.796;9.430;2023-01-04T00:50:39;1.70;;;1.60;;
70459;SDS011;57920;54.796;9.430;2023-01-04T00:53:04;3.23;;;1.93;;
70459;SDS011;57920;54.796;9.430;2023-01-04T00:55:30;2.47;;;1.80;;
70459;SDS011;57920;54.796;9.430;2023-01-04T00:57:57;3.80;;;1.73;;
70459;SDS011;57920;54.796;9.430;2023-01-04T01:00:22;2.03;;;1.77;;
70459;SDS011;57920;54.796;9.430;2023-01-04T01:02:48;1.97;;;1.80;;
70459;SDS011;57920;54.796;9.430;2023-01-04T01:05:17;1.80;;;1.70;;
70459;SDS011;57920;54.796;9.430;2023-01-04T01:07:42;3.67;;;2.10;;
70459;SDS011;57920;54.796;9.430;2023-01-04T01:10:08;3.07;;;1.77;;
70459;SDS011;57920;54.796;9.430;2023-01-04T01:12:34;4.90;;;2.13;;
70459;SDS011;57920;54.796;9.430;2023-01-04T01:14:59;2.00;;;1.87;;
70459;SDS011;57920;54.796;9.430;2023-01-04T01:17:25;1.97;;;1.77;;
70459;SDS011;57920;54.796;9.430;2023-01-04T01:19:50;3.23;;;1.87;;
70459;SDS011;57920;54.796;9.430;2023-01-04T01:22:16;3.00;;;1.83;;
70459;SDS011;57920;54.796;9.430;2023-01-04T01:24:41;2.33;;;1.80;;
70459;SDS011;57920;54.796;9.430;2023-01-04T01:27:07;2.80;;;1.83;;
70459;SDS011;57920;54.796;9.430;2023-01-04T01:29:36;4.30;;;2.03;;
70459;SDS011;57920;54.796;9.430;2023-01-04T01:32:01;3.50;;;1.97;;
70459;SDS011;57920;54.796;9.430;2023-01-04T01:34:27;2.50;;;1.60;;
70459;SDS011;57920;54.796;9.430;2023-01-04T01:36:52;1.83;;;1.63;;
70459;SDS011;57920;54.796;9.430;2023-01-04T01:39:18;2.60;;;1.70;;
70459;SDS011;57920;54.796;9.430;2023-01-04T01:41:44;1.53;;;1.40;;
70459;SDS011;57920;54.796;9.430;2023-01-04T01:47:20;1.87;;;1.50;;
70459;SDS011;57920;54.796;9.430;2023-01-04T01:49:48;2.43;;;1.80;;
70459;SDS011;57920;54.796;9.430;2023-01-04T01:52:17;2.47;;;1.57;;
70459;SDS011;57920;54.796;9.430;2023-01-04T01:55:08;1.53;;;1.13;;
70459;SDS011;57920;54.796;9.430;2023-01-04T01:57:35;1.37;;;1.23;;
70459;SDS011;57920;54.796;9.430;2023-01-04T02:00:04;1.67;;;1.27;;
70459;SDS011;57920;54.796;9.430;2023-01-04T02:02:32;3.07;;;1.57;;
70459;SDS011;57920;54.796;9.430;2023-01-04T02:04:58;2.47;;;1.70;;
70459;SDS011;57920;54.796;9.430;2023-01-04T02:07:27;2.37;;;1.63;;
70459;SDS011;57920;54.796;9.430;2023-01-04T02:09:53;1.77;;;1.60;;
70459;SDS011;57920;54.796;9.430;2023-01-04T02:12:20;2.30;;;1.60;;
70459;SDS011;57920;54.796;9.430;2023-01-04T02:14:46;2.00;;;1.20;;
70459;SDS011;57920;54.796;9.430;2023-01-04T02:20:31;1.50;;;1.00;;
70459;SDS011;57920;54.796;9.430;2023-01-04T02:26:23;1.43;;;0.93;;
70459;SDS011;57920;54.796;9.430;2023-01-04T02:32:10;1.20;;;1.10;;
70459;SDS011;57920;54.796;9.430;2023-01-04T02:34:44;1.20;;;0.97;;
70459;SDS011;57920;54.796;9.430;2023-01-04T02:42:59;1.27;;;0.90;;
70459;SDS011;57920;54.796;9.430;2023-01-04T02:45:57;1.03;;;0.67;;
70459;SDS011;57920;54.796;9.430;2023-01-04T02:48:37;2.90;;;1.20;;
70459;SDS011;57920;54.796;9.430;2023-01-04T02:51:29;1.27;;;0.87;;
70459;SDS011;57920;54.796;9.430;2023-01-04T02:53:57;1.63;;;1.10;;
70459;SDS011;57920;54.796;9.430;2023-01-04T02:59:28;1.13;;;1.03;;
70459;SDS011;57920;54.796;9.430;2023-01-04T03:02:11;1.30;;;0.83;;
70459;SDS011;57920;54.796;9.430;2023-01-04T03:08:00;1.70;;;1.10;;
70459;SDS011;57920;54.796;9.430;2023-01-04T03:15:58;1.90;;;0.80;;
70459;SDS011;57920;54.796;9.430;2023-01-04T03:18:29;1.53;;;1.30;;
70459;SDS011;57920;54.796;9.430;2023-01-04T03:21:00;1.50;;;1.10;;
70459;SDS011;57920;54.796;9.430;2023-01-04T03:23:28;2.13;;;1.13;;
70459;SDS011;57920;54.796;9.430;2023-01-04T03:26:19;1.63;;;1.20;;
70459;SDS011;57920;54.796;9.430;2023-01-04T03:29:09;1.63;;;1.10;;
70459;SDS011;57920;54.796;9.430;2023-01-04T03:32:10;0.93;;;0.80;;
70459;SDS011;57920;54.796;9.430;2023-01-04T03:35:10;1.37;;;0.80;;
70459;SDS011;57920;54.796;9.430;2023-01-04T03:37:49;1.47;;;1.27;;
70459;SDS011;57920;54.796;9.430;2023-01-04T03:40:45;1.03;;;0.93;;
70459;SDS011;57920;54.796;9.430;2023-01-04T03:43:41;1.30;;;0.77;;
70459;SDS011;57920;54.796;9.430;2023-01-04T03:46:35;1.20;;;0.90;;
70459;SDS011;57920;54.796;9.430;2023-01-04T03:49:39;3.10;;;1.20;;
70459;SDS011;57920;54.796;9.430;2023-01-04T03:52:11;1.87;;;1.20;;
70459;SDS011;57920;54.796;9.430;2023-01-04T03:54:41;2.10;;;1.20;;
70459;SDS011;57920;54.796;9.430;2023-01-04T03:57:08;0.97;;;0.80;;
70459;SDS011;57920;54.796;9.430;2023-01-04T03:59:36;2.30;;;1.20;;
70459;SDS011;57920;54.796;9.430;2023-01-04T04:02:08;2.07;;;1.20;;
70459;SDS011;57920;54.796;9.430;2023-01-04T04:04:37;1.20;;;1.03;;
70459;SDS011;57920;54.796;9.430;2023-01-04T04:07:23;2.27;;;1.10;;
70459;SDS011;57920;54.796;9.430;2023-01-04T04:10:07;1.10;;;0.93;;
70459;SDS011;57920;54.796;9.430;2023-01-04T04:12:32;1.53;;;0.90;;
70459;SDS011;57920;54.796;9.430;2023-01-04T04:14:58;2.13;;;0.97;;
70459;SDS011;57920;54.796;9.430;2023-01-04T04:17:24;1.43;;;0.90;;
70459;SDS011;57920;54.796;9.430;2023-01-04T04:19:49;1.13;;;0.87;;
70459;SDS011;57920;54.796;9.430;2023-01-04T04:22:15;1.90;;;1.00;;
70459;SDS011;57920;54.796;9.430;2023-01-04T04:24:40;1.40;;;0.70;;
70459;SDS011;57920;54.796;9.430;2023-01-04T04:27:06;1.23;;;0.63;;
70459;SDS011;57920;54.796;9.430;2023-01-04T04:29:31;2.63;;;1.00;;
70459;SDS011;57920;54.796;9.430;2023-01-04T04:31:57;0.77;;;0.67;;
70459;SDS011;57920;54.796;9.430;2023-01-04T04:34:22;1.27;;;1.00;;
70459;SDS011;57920;54.796;9.430;2023-01-04T04:36:48;0.67;;;0.60;;
70459;SDS011;57920;54.796;9.430;2023-01-04T04:39:13;1.63;;;1.07;;
70459;SDS011;57920;54.796;9.430;2023-01-04T04:41:39;1.33;;;0.83;;
70459;SDS011;57920;54.796;9.430;2023-01-04T04:46:32;1.57;;;1.23;;
70459;SDS011;57920;54.796;9.430;2023-01-04T04:48:58;1.40;;;1.00;;
70459;SDS011;57920;54.796;9.430;2023-01-04T04:51:24;0.87;;;0.70;;
70459;SDS011;57920;54.796;9.430;2023-01-04T04:53:49;1.57;;;0.93;;
70459;SDS011;57920;54.796;9.430;2023-01-04T04:56:15;1.07;;;0.80;;
70459;SDS011;57920;54.796;9.430;2023-01-04T04:58:41;0.97;;;0.70;;
70459;SDS011;57920;54.796;9.430;2023-01-04T05:01:06;2.10;;;0.90;;
70459;SDS011;57920;54.796;9.430;2023-01-04T05:03:32;1.33;;;1.03;;
70459;SDS011;57920;54.796;9.430;2023-01-04T05:05:57;2.73;;;1.00;;
70459;SDS011;57920;54.796;9.430;2023-01-04T05:08:23;1.33;;;0.83;;
70459;SDS011;57920;54.796;9.430;2023-01-04T05:10:49;1.43;;;0.70;;
70459;SDS011;57920;54.796;9.430;2023-01-04T05:13:14;1.27;;;0.70;;
70459;SDS011;57920;54.796;9.430;2023-01-04T05:15:41;0.87;;;0.80;;
70459;SDS011;57920;54.796;9.430;2023-01-04T05:18:09;1.80;;;0.77;;
70459;SDS011;57920;54.796;9.430;2023-01-04T05:20:36;1.70;;;0.70;;
70459;SDS011;57920;54.796;9.430;2023-01-04T05:23:02;0.93;;;0.73;;
70459;SDS011;57920;54.796;9.430;2023-01-04T05:25:28;1.10;;;0.70;;
70459;SDS011;57920;54.796;9.430;2023-01-04T05:27:54;1.77;;;0.60;;
70459;SDS011;57920;54.796;9.430;2023-01-04T05:30:20;0.97;;;0.80;;
70459;SDS011;57920;54.796;9.430;2023-01-04T05:33:04;1.17;;;0.80;;
70459;SDS011;57920;54.796;9.430;2023-01-04T05:35:30;1.90;;;0.87;;
70459;SDS011;57920;54.796;9.430;2023-01-04T05:37:56;0.60;;;0.50;;
70459;SDS011;57920;54.796;9.430;2023-01-04T05:40:22;0.77;;;0.60;;
70459;SDS011;57920;54.796;9.430;2023-01-04T05:42:48;1.10;;;0.70;;
70459;SDS011;57920;54.796;9.430;2023-01-04T05:45:14;0.80;;;0.70;;
70459;SDS011;57920;54.796;9.430;2023-01-04T05:47:40;0.40;;;0.30;;
70459;SDS011;57920;54.796;9.430;2023-01-04T05:50:06;1.10;;;0.50;;
70459;SDS011;57920;54.796;9.430;2023-01-04T05:52:33;0.60;;;0.60;;
70459;SDS011;57920;54.796;9.430;2023-01-04T05:54:58;0.70;;;0.60;;
70459;SDS011;57920;54.796;9.430;2023-01-04T05:57:24;0.70;;;0.63;;
70459;SDS011;57920;54.796;9.430;2023-01-04T05:59:50;1.10;;;0.70;;
70459;SDS011;57920;54.796;9.430;2023-01-04T06:02:17;0.40;;;0.40;;
70459;SDS011;57920;54.796;9.430;2023-01-04T06:04:44;2.10;;;0.97;;
70459;SDS011;57920;54.796;9.430;2023-01-04T06:07:10;0.40;;;0.40;;
70459;SDS011;57920;54.796;9.430;2023-01-04T06:09:35;1.00;;;0.50;;
70459;SDS011;57920;54.796;9.430;2023-01-04T06:12:01;0.73;;;0.57;;
70459;SDS011;57920;54.796;9.430;2023-01-04T06:14:27;0.53;;;0.50;;
70459;SDS011;57920;54.796;9.430;2023-01-04T06:16:52;1.30;;;0.73;;
70459;SDS011;57920;54.796;9.430;2023-01-04T06:19:18;0.83;;;0.60;;
70459;SDS011;57920;54.796;9.430;2023-01-04T06:21:43;2.70;;;0.40;;
70459;SDS011;57920;54.796;9.430;2023-01-04T06:24:09;0.83;;;0.47;;
70459;SDS011;57920;54.796;9.430;2023-01-04T06:26:35;0.70;;;0.50;;
70459;SDS011;57920;54.796;9.430;2023-01-04T06:29:01;0.53;;;0.37;;
70459;SDS011;57920;54.796;9.430;2023-01-04T06:31:27;0.40;;;0.40;;
70459;SDS011;57920;54.796;9.430;2023-01-04T06:33:52;0.40;;;0.40;;
70459;SDS011;57920;54.796;9.430;2023-01-04T06:36:18;0.90;;;0.60;;
70459;SDS011;57920;54.796;9.430;2023-01-04T06:38:43;0.93;;;0.37;;
70459;SDS011;57920;54.796;9.430;2023-01-04T06:41:09;0.40;;;0.30;;
70459;SDS011;57920;54.796;9.430;2023-01-04T06:43:34;1.50;;;0.60;;
70459;SDS011;57920;54.796;9.430;2023-01-04T06:46:00;1.07;;;0.60;;
70459;SDS011;57920;54.796;9.430;2023-01-04T06:48:27;0.40;;;0.30;;
70459;SDS011;57920;54.796;9.430;2023-01-04T06:50:53;1.13;;;0.50;;
70459;SDS011;57920;54.796;9.430;2023-01-04T06:53:18;0.67;;;0.57;;
70459;SDS011;57920;54.796;9.430;2023-01-04T06:55:44;2.20;;;0.47;;
70459;SDS011;57920;54.796;9.430;2023-01-04T06:58:09;0.97;;;0.50;;
70459;SDS011;57920;54.796;9.430;2023-01-04T07:00:35;0.80;;;0.40;;
70459;SDS011;57920;54.796;9.430;2023-01-04T07:03:01;1.27;;;0.30;;
70459;SDS011;57920;54.796;9.430;2023-01-04T07:05:26;0.37;;;0.30;;
70459;SDS011;57920;54.796;9.430;2023-01-04T07:07:52;1.67;;;0.50;;
70459;SDS011;57920;54.796;9.430;2023-01-04T07:10:18;0.50;;;0.40;;
70459;SDS011;57920;54.796;9.430;2023-01-04T07:12:44;0.43;;;0.37;;
70459;SDS011;57920;54.796;9.430;2023-01-04T07:15:10;0.57;;;0.30;;
70459;SDS011;57920;54.796;9.430;2023-01-04T07:17:36;0.60;;;0.50;;
70459;SDS011;57920;54.796;9.430;2023-01-04T07:20:01;1.60;;;0.50;;
70459;SDS011;57920;54.796;9.430;2023-01-04T07:22:28;1.80;;;0.50;;
70459;SDS011;57920;54.796;9.430;2023-01-04T07:24:54;0.77;;;0.40;;
70459;SDS011;57920;54.796;9.430;2023-01-04T07:27:20;0.57;;;0.50;;
70459;SDS011;57920;54.796;9.430;2023-01-04T07:29:45;0.83;;;0.50;;
70459;SDS011;57920;54.796;9.430;2023-01-04T07:32:11;0.87;;;0.50;;
70459;SDS011;57920;54.796;9.430;2023-01-04T07:34:37;0.40;;;0.40;;
70459;SDS011;57920;54.796;9.430;2023-01-04T07:37:03;0.43;;;0.40;;
70459;SDS011;57920;54.796;9.430;2023-01-04T07:39:31;2.93;;;1.47;;
70459;SDS011;57920;54.796;9.430;2023-01-04T07:41:56;4.53;;;1.53;;
70459;SDS011;57920;54.796;9.430;2023-01-04T07:44:22;43.87;;;7.67;;
70459;SDS011;57920;54.796;9.430;2023-01-04T07:46:50;53.37;;;10.10;;
70459;SDS011;57920;54.796;9.430;2023-01-04T07:49:16;30.20;;;6.77;;
70459;SDS011;57920;54.796;9.430;2023-01-04T07:51:42;30.03;;;6.57;;
70459;SDS011;57920;54.796;9.430;2023-01-04T07:54:08;37.57;;;6.67;;
70459;SDS011;57920;54.796;9.430;2023-01-04T07:56:35;36.40;;;7.10;;
70459;SDS011;57920;54.796;9.430;2023-01-04T07:59:01;48.77;;;8.53;;
70459;SDS011;57920;54.796;9.430;2023-01-04T08:01:30;45.03;;;8.47;;
70459;SDS011;57920;54.796;9.430;2023-01-04T08:03:56;40.17;;;8.70;;
70459;SDS011;57920;54.796;9.430;2023-01-04T08:06:21;40.80;;;8.80;;
70459;SDS011;57920;54.796;9.430;2023-01-04T08:08:47;40.97;;;9.57;;
70459;SDS011;57920;54.796;9.430;2023-01-04T08:11:17;119.33;;;18.97;;
70459;SDS011;57920;54.796;9.430;2023-01-04T08:13:44;118.47;;;21.77;;
70459;SDS011;57920;54.796;9.430;2023-01-04T08:16:20;222.90;;;34.60;;
70459;SDS011;57920;54.796;9.430;2023-01-04T08:18:57;166.03;;;26.13;;
70459;SDS011;57920;54.796;9.430;2023-01-04T08:21:25;161.30;;;25.37;;
70459;SDS011;57920;54.796;9.430;2023-01-04T08:23:53;133.93;;;20.80;;
70459;SDS011;57920;54.796;9.430;2023-01-04T08:26:19;90.53;;;17.10;;
70459;SDS011;57920;54.796;9.430;2023-01-04T08:28:47;92.17;;;14.57;;
70459;SDS011;57920;54.796;9.430;2023-01-04T08:31:15;102.30;;;15.97;;
70459;SDS011;57920;54.796;9.430;2023-01-04T08:33:43;56.37;;;10.43;;
70459;SDS011;57920;54.796;9.430;2023-01-04T08:36:16;87.13;;;14.63;;
70459;SDS011;57920;54.796;9.430;2023-01-04T08:38:48;55.23;;;10.47;;
70459;SDS011;57920;54.796;9.430;2023-01-04T08:41:15;47.13;;;9.73;;
70459;SDS011;57920;54.796;9.430;2023-01-04T08:43:42;31.10;;;6.23;;
70459;SDS011;57920;54.796;9.430;2023-01-04T08:46:17;33.80;;;6.73;;
70459;SDS011;57920;54.796;9.430;2023-01-04T08:48:42;30.50;;;7.43;;
70459;SDS011;57920;54.796;9.430;2023-01-04T08:51:17;21.43;;;5.50;;
70459;SDS011;57920;54.796;9.430;2023-01-04T08:53:43;24.40;;;5.20;;
70459;SDS011;57920;54.796;9.430;2023-01-04T08:56:09;15.87;;;4.07;;
70459;SDS011;57920;54.796;9.430;2023-01-04T08:58:35;20.27;;;3.83;;
70459;SDS011;57920;54.796;9.430;2023-01-04T09:01:03;15.33;;;3.30;;
70459;SDS011;57920;54.796;9.430;2023-01-04T09:03:33;13.37;;;3.53;;
70459;SDS011;57920;54.796;9.430;2023-01-04T09:06:01;12.23;;;2.70;;
70459;SDS011;57920;54.796;9.430;2023-01-04T09:08:37;6.17;;;1.83;;
70459;SDS011;57920;54.796;9.430;2023-01-04T09:11:04;4.33;;;2.03;;
70459;SDS011;57920;54.796;9.430;2023-01-04T09:13:33;11.20;;;2.57;;
70459;SDS011;57920;54.796;9.430;2023-01-04T09:16:03;9.43;;;2.13;;
70459;SDS011;57920;54.796;9.430;2023-01-04T09:18:34;6.37;;;2.67;;
70459;SDS011;57920;54.796;9.430;2023-01-04T09:21:07;9.17;;;2.70;;
70459;SDS011;57920;54.796;9.430;2023-01-04T09:23:38;10.97;;;2.53;;
70459;SDS011;57920;54.796;9.430;2023-01-04T09:26:05;6.73;;;2.10;;
70459;SDS011;57920;54.796;9.430;2023-01-04T09:28:31;5.33;;;1.80;;
70459;SDS011;57920;54.796;9.430;2023-01-04T09:30:56;7.53;;;1.93;;
70459;SDS011;57920;54.796;9.430;2023-01-04T09:33:22;9.30;;;2.00;;
70459;SDS011;57920;54.796;9.430;2023-01-04T09:35:48;4.93;;;1.77;;
70459;SDS011;57920;54.796;9.430;2023-01-04T09:38:13;6.97;;;2.03;;
70459;SDS011;57920;54.796;9.430;2023-01-04T09:40:47;5.30;;;1.70;;
70459;SDS011;57920;54.796;9.430;2023-01-04T09:43:18;5.27;;;1.20;;
70459;SDS011;57920;54.796;9.430;2023-01-04T09:45:46;9.63;;;1.87;;
70459;SDS011;57920;54.796;9.430;2023-01-04T09:48:17;7.87;;;1.57;;
70459;SDS011;57920;54.796;9.430;2023-01-04T09:55:55;5.37;;;1.80;;
70459;SDS011;57920;54.796;9.430;2023-01-04T09:58:33;6.33;;;1.57;;
70459;SDS011;57920;54.796;9.430;2023-01-04T10:01:15;4.83;;;1.70;;
70459;SDS011;57920;54.796;9.430;2023-01-04T10:04:04;3.50;;;1.37;;
70459;SDS011;57920;54.796;9.430;2023-01-04T10:06:39;3.10;;;1.00;;
70459;SDS011;57920;54.796;9.430;2023-01-04T10:09:12;4.03;;;1.67;;
70459;SDS011;57920;54.796;9.430;2023-01-04T10:21:57;2.87;;;1.53;;
70459;SDS011;57920;54.796;9.430;2023-01-04T10:24:33;4.10;;;1.40;;
70459;SDS011;57920;54.796;9.430;2023-01-04T10:27:19;2.47;;;1.40;;
70459;SDS011;57920;54.796;9.430;2023-01-04T10:32:40;6.10;;;1.70;;
70459;SDS011;57920;54.796;9.430;2023-01-04T10:37:55;4.03;;;1.60;;
70459;SDS011;57920;54.796;9.430;2023-01-04T10:40:22;4.07;;;1.57;;
70459;SDS011;57920;54.796;9.430;2023-01-04T10:43:02;7.10;;;2.50;;
70459;SDS011;57920;54.796;9.430;2023-01-04T10:46:05;2.67;;;1.37;;
70459;SDS011;57920;54.796;9.430;2023-01-04T10:48:43;6.80;;;2.17;;
70459;SDS011;57920;54.796;9.430;2023-01-04T10:51:17;4.33;;;2.27;;
70459;SDS011;57920;54.796;9.430;2023-01-04T10:56:25;3.50;;;1.93;;
70459;SDS011;57920;54.796;9.430;2023-01-04T10:59:12;4.73;;;2.30;;
70459;SDS011;57920;54.796;9.430;2023-01-04T11:02:00;3.83;;;1.93;;
70459;SDS011;57920;54.796;9.430;2023-01-04T11:04:36;4.20;;;2.63;;
70459;SDS011;57920;54.796;9.430;2023-01-04T11:07:12;4.37;;;2.10;;
70459;SDS011;57920;54.796;9.430;2023-01-04T11:12:16;3.53;;;2.20;;
70459;SDS011;57920;54.796;9.430;2023-01-04T11:14:45;4.67;;;2.40;;
70459;SDS011;57920;54.796;9.430;2023-01-04T11:17:11;3.80;;;2.10;;
70459;SDS011;57920;54.796;9.430;2023-01-04T11:19:41;7.90;;;2.87;;
70459;SDS011;57920;54.796;9.430;2023-01-04T11:22:14;4.73;;;2.47;;
70459;SDS011;57920;54.796;9.430;2023-01-04T11:24:46;6.77;;;2.40;;
70459;SDS011;57920;54.796;9.430;2023-01-04T11:27:16;11.33;;;3.63;;
70459;SDS011;57920;54.796;9.430;2023-01-04T11:29:51;14.00;;;3.20;;
70459;SDS011;57920;54.796;9.430;2023-01-04T11:35:13;31.80;;;5.87;;
70459;SDS011;57920;54.796;9.430;2023-01-04T11:37:40;23.40;;;5.33;;
70459;SDS011;57920;54.796;9.430;2023-01-04T11:42:41;31.37;;;7.93;;
70459;SDS011;57920;54.796;9.430;2023-01-04T11:45:30;35.80;;;7.10;;
70459;SDS011;57920;54.796;9.430;2023-01-04T11:47:56;16.27;;;4.67;;
70459;SDS011;57920;54.796;9.430;2023-01-04T11:50:35;21.40;;;6.63;;
70459;SDS011;57920;54.796;9.430;2023-01-04T11:53:01;24.60;;;5.67;;
70459;SDS011;57920;54.796;9.430;2023-01-04T11:55:43;21.60;;;5.33;;
70459;SDS011;57920;54.796;9.430;2023-01-04T11:58:10;18.23;;;5.60;;
70459;SDS011;57920;54.796;9.430;2023-01-04T12:00:51;18.17;;;5.50;;
70459;SDS011;57920;54.796;9.430;2023-01-04T12:03:28;25.40;;;6.47;;
70459;SDS011;57920;54.796;9.430;2023-01-04T12:05:56;15.57;;;5.50;;
70459;SDS011;57920;54.796;9.430;2023-01-04T12:08:27;21.93;;;5.83;;
70459;SDS011;57920;54.796;9.430;2023-01-04T12:10:57;16.10;;;5.27;;
70459;SDS011;57920;54.796;9.430;2023-01-04T12:13:24;12.60;;;4.53;;
70459;SDS011;57920;54.796;9.430;2023-01-04T12:18:44;8.70;;;4.20;;
70459;SDS011;57920;54.796;9.430;2023-01-04T12:21:20;12.07;;;4.73;;
70459;SDS011;57920;54.796;9.430;2023-01-04T12:23:47;10.70;;;3.80;;
70459;SDS011;57920;54.796;9.430;2023-01-04T12:26:14;17.40;;;5.43;;
70459;SDS011;57920;54.796;9.430;2023-01-04T12:28:45;11.90;;;4.47;;
70459;SDS011;57920;54.796;9.430;2023-01-04T12:33:56;12.80;;;4.73;;
70459;SDS011;57920;54.796;9.430;2023-01-04T12:44:55;12.03;;;4.73;;
70459;SDS011;57920;54.796;9.430;2023-01-04T12:47:00;6.87;;;3.47;;
70459;SDS011;57920;54.796;9.430;2023-01-04T12:54:56;9.30;;;4.03;;
70459;SDS011;57920;54.796;9.430;2023-01-04T13:04:57;12.37;;;4.60;;
70459;SDS011;57920;54.796;9.430;2023-01-04T13:07:50;9.17;;;3.90;;
70459;SDS011;57920;54.796;9.430;2023-01-04T13:15:44;9.77;;;3.67;;
70459;SDS011;57920;54.796;9.430;2023-01-04T13:23:41;16.20;;;4.60;;
70459;SDS011;57920;54.796;9.430;2023-01-04T13:39:40;13.07;;;4.57;;
70459;SDS011;57920;54.796;9.430;2023-01-04T13:42:30;24.10;;;7.00;;
70459;SDS011;57920;54.796;9.430;2023-01-04T13:47:54;13.43;;;5.43;;
70459;SDS011;57920;54.796;9.430;2023-01-04T13:50:26;13.20;;;5.43;;
70459;SDS011;57920;54.796;9.430;2023-01-04T13:52:56;19.90;;;6.67;;
70459;SDS011;57920;54.796;9.430;2023-01-04T13:58:36;17.50;;;6.60;;
70459;SDS011;57920;54.796;9.430;2023-01-04T14:03:32;29.20;;;8.30;;
70459;SDS011;57920;54.796;9.430;2023-01-04T14:06:09;29.67;;;7.13;;
70459;SDS011;57920;54.796;9.430;2023-01-04T14:08:44;24.83;;;7.83;;
70459;SDS011;57920;54.796;9.430;2023-01-04T14:11:14;22.77;;;8.80;;
70459;SDS011;57920;54.796;9.430;2023-01-04T14:24:53;28.20;;;7.03;;
70459;SDS011;57920;54.796;9.430;2023-01-04T14:27:39;19.87;;;6.13;;
70459;SDS011;57920;54.796;9.430;2023-01-04T14:35:26;17.23;;;6.20;;
70459;SDS011;57920;54.796;9.430;2023-01-04T14:37:54;17.43;;;5.77;;
70459;SDS011;57920;54.796;9.430;2023-01-04T14:40:27;17.87;;;6.37;;
70459;SDS011;57920;54.796;9.430;2023-01-04T14:42:57;10.93;;;5.57;;
70459;SDS011;57920;54.796;9.430;2023-01-04T14:45:22;19.70;;;5.17;;
70459;SDS011;57920;54.796;9.430;2023-01-04T14:47:48;20.87;;;6.27;;
70459;SDS011;57920;54.796;9.430;2023-01-04T14:50:15;13.37;;;5.20;;
70459;SDS011;57920;54.796;9.430;2023-01-04T14:52:50;17.10;;;6.60;;
70459;SDS011;57920;54.796;9.430;2023-01-04T14:55:18;15.03;;;6.17;;
70459;SDS011;57920;54.796;9.430;2023-01-04T14:57:44;12.50;;;5.00;;
70459;SDS011;57920;54.796;9.430;2023-01-04T15:00:13;16.17;;;5.70;;
70459;SDS011;57920;54.796;9.430;2023-01-04T15:02:40;11.23;;;4.77;;
70459;SDS011;57920;54.796;9.430;2023-01-04T15:05:06;13.13;;;5.03;;
70459;SDS011;57920;54.796;9.430;2023-01-04T15:09:59;11.90;;;4.10;;
70459;SDS011;57920;54.796;9.430;2023-01-04T15:12:26;13.60;;;4.93;;
70459;SDS011;57920;54.796;9.430;2023-01-04T15:14:51;9.63;;;4.27;;
70459;SDS011;57920;54.796;9.430;2023-01-04T15:17:17;12.53;;;4.77;;
70459;SDS011;57920;54.796;9.430;2023-01-04T15:19:43;11.87;;;4.80;;
70459;SDS011;57920;54.796;9.430;2023-01-04T15:22:08;10.60;;;4.40;;
70459;SDS011;57920;54.796;9.430;2023-01-04T15:24:37;13.57;;;4.20;;
70459;SDS011;57920;54.796;9.430;2023-01-04T15:27:02;14.53;;;4.67;;
70459;SDS011;57920;54.796;9.430;2023-01-04T15:29:28;13.37;;;4.63;;
70459;SDS011;57920;54.796;9.430;2023-01-04T15:31:53;14.53;;;4.57;;
70459;SDS011;57920;54.796;9.430;2023-01-04T15:34:19;6.57;;;3.13;;
70459;SDS011;57920;54.796;9.430;2023-01-04T15:36:49;8.17;;;4.17;;
70459;SDS011;57920;54.796;9.430;2023-01-04T15:39:15;10.10;;;3.70;;
70459;SDS011;57920;54.796;9.430;2023-01-04T15:41:41;8.60;;;3.73;;
70459;SDS011;57920;54.796;9.430;2023-01-04T15:44:25;12.13;;;4.43;;
70459;SDS011;57920;54.796;9.430;2023-01-04T15:46:52;7.90;;;3.47;;
70459;SDS011;57920;54.796;9.430;2023-01-04T15:49:17;7.67;;;3.73;;
70459;SDS011;57920;54.796;9.430;2023-01-04T15:51:43;11.07;;;3.87;;
70459;SDS011;57920;54.796;9.430;2023-01-04T15:54:09;9.50;;;4.13;;
70459;SDS011;57920;54.796;9.430;2023-01-04T15:56:35;11.20;;;4.47;;
70459;SDS011;57920;54.796;9.430;2023-01-04T15:59:00;9.57;;;3.60;;
70459;SDS011;57920;54.796;9.430;2023-01-04T16:01:26;9.03;;;4.10;;
70459;SDS011;57920;54.796;9.430;2023-01-04T16:03:52;9.17;;;3.80;;
70459;SDS011;57920;54.796;9.430;2023-01-04T16:06:17;7.00;;;3.37;;
70459;SDS011;57920;54.796;9.430;2023-01-04T16:08:43;6.83;;;2.80;;
70459;SDS011;57920;54.796;9.430;2023-01-04T16:11:12;9.00;;;4.20;;
70459;SDS011;57920;54.796;9.430;2023-01-04T16:13:42;7.90;;;3.10;;
70459;SDS011;57920;54.796;9.430;2023-01-04T16:16:08;10.40;;;3.50;;
70459;SDS011;57920;54.796;9.430;2023-01-04T16:18:35;6.73;;;2.90;;
70459;SDS011;57920;54.796;9.430;2023-01-04T16:21:05;8.10;;;4.10;;
70459;SDS011;57920;54.796;9.430;2023-01-04T16:23:32;8.33;;;4.47;;
70459;SDS011;57920;54.796;9.430;2023-01-04T16:26:02;7.27;;;3.67;;
70459;SDS011;57920;54.796;9.430;2023-01-04T16:28:35;8.30;;;3.57;;
70459;SDS011;57920;54.796;9.430;2023-01-04T16:31:01;9.10;;;3.77;;
70459;SDS011;57920;54.796;9.430;2023-01-04T16:33:27;6.87;;;3.40;;
70459;SDS011;57920;54.796;9.430;2023-01-04T16:36:03;8.50;;;4.50;;
70459;SDS011;57920;54.796;9.430;2023-01-04T16:38:31;7.03;;;3.80;;
70459;SDS011;57920;54.796;9.430;2023-01-04T16:41:00;7.87;;;4.27;;
70459;SDS011;57920;54.796;9.430;2023-01-04T16:43:27;7.83;;;3.50;;
70459;SDS011;57920;54.796;9.430;2023-01-04T16:48:41;9.90;;;4.00;;
70459;SDS011;57920;54.796;9.430;2023-01-04T16:51:07;8.77;;;3.53;;
70459;SDS011;57920;54.796;9.430;2023-01-04T16:53:33;7.70;;;3.90;;
70459;SDS011;57920;54.796;9.430;2023-01-04T16:56:06;9.63;;;4.27;;
70459;SDS011;57920;54.796;9.430;2023-01-04T16:58:34;6.70;;;3.60;;
70459;SDS011;57920;54.796;9.430;2023-01-04T17:01:04;11.67;;;3.67;;
70459;SDS011;57920;54.796;9.430;2023-01-04T17:03:31;6.13;;;3.10;;
70459;SDS011;57920;54.796;9.430;2023-01-04T17:05:56;7.97;;;3.90;;
70459;SDS011;57920;54.796;9.430;2023-01-04T17:08:22;7.07;;;4.10;;
70459;SDS011;57920;54.796;9.430;2023-01-04T17:10:47;9.87;;;3.90;;
70459;SDS011;57920;54.796;9.430;2023-01-04T17:13:13;7.57;;;4.07;;
70459;SDS011;57920;54.796;9.430;2023-01-04T17:15:39;9.20;;;3.83;;
70459;SDS011;57920;54.796;9.430;2023-01-04T17:18:04;5.63;;;3.20;;
70459;SDS011;57920;54.796;9.430;2023-01-04T17:20:30;6.93;;;3.73;;
70459;SDS011;57920;54.796;9.430;2023-01-04T17:22:55;5.13;;;3.10;;
70459;SDS011;57920;54.796;9.430;2023-01-04T17:25:21;9.20;;;3.87;;